sensor_id;sensor_type;location;lat;lon;timestamp;pressure;altitude;pressure_sealevel;temperature;humidity
67013;BME280;53926;47.406;19.188;2022-09-09T00:00:14;99997.25;;;17.13;100.00
67013;BME280;53926;47.406;19.188;2022-09-09T00:03:27;99995.13;;;17.05;100.00
67013;BME280;53926;47.406;19.188;2022-09-09T00:05:30;100006.44;;;17.06;100.00
67013;BME280;53926;47.406;19.188;2022-09-09T00:07:59;100009.28;;;16.94;100.00
67013;BME280;53926;47.406;19.188;2022-09-09T00:10:37;99997.44;;;16.91;100.00
67013;BME280;53926;47.406;19.188;2022-09-09T00:13:34;99998.47;;;16.90;100.00
67013;BME280;53926;47.406;19.188;2022-09-09T00:16:00;99999.00;;;16.87;100.00
67013;BME280;53926;47.406;19.188;2022-09-09T00:21:13;100009.16;;;16.78;100.00
67013;BME280;53926;47.406;19.188;2022-09-09T00:23:47;100014.69;;;16.77;100.00
67013;BME280;53926;47.406;19.188;2022-09-09T00:31:36;100010.44;;;16.66;100.00
67013;BME280;53926;47.406;19.188;2022-09-09T00:34:12;100009.09;;;16.63;100.00
67013;BME280;53926;47.406;19.188;2022-09-09T00:36:40;100013.66;;;16.78;100.00
67013;BME280;53926;47.406;19.188;2022-09-09T00:39:27;100009.94;;;16.74;100.00
67013;BME280;53926;47.406;19.188;2022-09-09T00:45:03;100014.16;;;16.70;100.00
67013;BME280;53926;47.406;19.188;2022-09-09T00:57:37;100022.47;;;16.56;100.00
67013;BME280;53926;47.406;19.188;2022-09-09T01:00:27;100026.38;;;16.54;100.00
67013;BME280;53926;47.406;19.188;2022-09-09T01:05:42;100020.37;;;16.58;100.00
67013;BME280;53926;47.406;19.188;2022-09-09T01:08:21;100036.63;;;16.50;100.00
67013;BME280;53926;47.406;19.188;2022-09-09T01:10:54;100038.50;;;16.60;100.00
67013;BME280;53926;47.406;19.188;2022-09-09T01:13:25;100037.97;;;16.53;100.00
67013;BME280;53926;47.406;19.188;2022-09-09T01:15:52;100044.00;;;16.53;100.00
67013;BME280;53926;47.406;19.188;2022-09-09T01:18:27;100045.03;;;16.52;100.00
67013;BME280;53926;47.406;19.188;2022-09-09T01:28:26;100048.75;;;16.56;100.00
67013;BME280;53926;47.406;19.188;2022-09-09T01:30:54;100046.97;;;16.62;100.00
67013;BME280;53926;47.406;19.188;2022-09-09T01:33:21;100055.91;;;16.66;100.00
67013;BME280;53926;47.406;19.188;2022-09-09T01:35:52;100065.25;;;16.47;100.00
67013;BME280;53926;47.406;19.188;2022-09-09T01:38:23;100063.31;;;16.37;100.00
67013;BME280;53926;47.406;19.188;2022-09-09T01:40:51;100057.16;;;16.53;100.00
67013;BME280;53926;47.406;19.188;2022-09-09T01:43:21;100054.75;;;16.47;100.00
67013;BME280;53926;47.406;19.188;2022-09-09T01:45:48;100062.31;;;16.43;100.00
67013;BME280;53926;47.406;19.188;2022-09-09T01:48:16;100052.38;;;16.45;100.00
67013;BME280;53926;47.406;19.188;2022-09-09T01:50:44;100054.78;;;16.57;100.00
67013;BME280;53926;47.406;19.188;2022-09-09T01:53:10;100059.81;;;16.58;100.00
67013;BME280;53926;47.406;19.188;2022-09-09T01:55:38;100059.75;;;16.48;100.00
67013;BME280;53926;47.406;19.188;2022-09-09T02:00:35;100054.50;;;16.48;100.00
67013;BME280;53926;47.406;19.188;2022-09-09T02:03:05;100054.19;;;16.44;100.00
67013;BME280;53926;47.406;19.188;2022-09-09T02:08:08;100067.03;;;16.41;100.00
67013;BME280;53926;47.406;19.188;2022-09-09T02:10:41;100063.78;;;16.23;100.00
67013;BME280;53926;47.406;19.188;2022-09-09T02:13:18;100073.47;;;16.23;100.00
67013;BME280;53926;47.406;19.188;2022-09-09T02:18:35;100070.94;;;16.33;100.00
67013;BME280;53926;47.406;19.188;2022-09-09T02:21:04;100078.84;;;16.38;100.00
67013;BME280;53926;47.406;19.188;2022-09-09T02:23:31;100080.19;;;16.08;100.00
67013;BME280;53926;47.406;19.188;2022-09-09T02:25:59;100080.22;;;16.14;100.00
67013;BME280;53926;47.406;19.188;2022-09-09T02:28:26;100067.94;;;16.19;100.00
67013;BME280;53926;47.406;19.188;2022-09-09T02:30:55;100078.19;;;16.21;100.00
67013;BME280;53926;47.406;19.188;2022-09-09T02:33:23;100073.28;;;16.30;100.00
67013;BME280;53926;47.406;19.188;2022-09-09T02:35:51;100070.22;;;16.11;100.00
67013;BME280;53926;47.406;19.188;2022-09-09T02:38:17;100071.22;;;16.37;100.00
67013;BME280;53926;47.406;19.188;2022-09-09T02:40:47;100065.41;;;16.30;100.00
67013;BME280;53926;47.406;19.188;2022-09-09T02:43:14;100066.16;;;16.25;100.00
67013;BME280;53926;47.406;19.188;2022-09-09T02:45:45;100070.91;;;16.01;100.00
67013;BME280;53926;47.406;19.188;2022-09-09T02:48:25;100064.78;;;16.17;100.00
67013;BME280;53926;47.406;19.188;2022-09-09T02:53:21;100079.28;;;16.25;100.00
67013;BME280;53926;47.406;19.188;2022-09-09T02:55:56;100077.78;;;16.34;100.00
67013;BME280;53926;47.406;19.188;2022-09-09T02:58:24;100072.84;;;16.43;100.00
67013;BME280;53926;47.406;19.188;2022-09-09T03:00:51;100080.94;;;16.36;100.00
67013;BME280;53926;47.406;19.188;2022-09-09T03:03:18;100082.06;;;16.45;100.00
67013;BME280;53926;47.406;19.188;2022-09-09T03:05:46;100073.41;;;16.50;100.00
67013;BME280;53926;47.406;19.188;2022-09-09T03:08:12;100078.94;;;16.16;100.00
67013;BME280;53926;47.406;19.188;2022-09-09T03:10:39;100063.03;;;16.28;100.00
67013;BME280;53926;47.406;19.188;2022-09-09T03:13:06;100068.13;;;16.45;100.00
67013;BME280;53926;47.406;19.188;2022-09-09T03:15:32;100072.38;;;16.51;100.00
67013;BME280;53926;47.406;19.188;2022-09-09T03:17:59;100063.91;;;16.44;100.00
67013;BME280;53926;47.406;19.188;2022-09-09T03:20:26;100077.09;;;16.17;100.00
67013;BME280;53926;47.406;19.188;2022-09-09T03:22:53;100067.84;;;16.09;100.00
67013;BME280;53926;47.406;19.188;2022-09-09T03:25:20;100075.47;;;16.11;100.00
67013;BME280;53926;47.406;19.188;2022-09-09T03:27:50;100080.41;;;16.02;100.00
67013;BME280;53926;47.406;19.188;2022-09-09T03:30:23;100076.06;;;15.90;100.00
67013;BME280;53926;47.406;19.188;2022-09-09T03:32:50;100067.56;;;16.05;100.00
67013;BME280;53926;47.406;19.188;2022-09-09T03:35:17;100072.03;;;16.05;100.00
67013;BME280;53926;47.406;19.188;2022-09-09T03:37:43;100060.56;;;16.16;100.00
67013;BME280;53926;47.406;19.188;2022-09-09T03:40:10;100062.78;;;16.02;100.00
67013;BME280;53926;47.406;19.188;2022-09-09T03:42:37;100057.41;;;15.87;100.00
67013;BME280;53926;47.406;19.188;2022-09-09T03:45:04;100067.37;;;15.85;100.00
67013;BME280;53926;47.406;19.188;2022-09-09T03:47:31;100063.41;;;15.82;100.00
67013;BME280;53926;47.406;19.188;2022-09-09T03:49:58;100066.16;;;15.98;100.00
67013;BME280;53926;47.406;19.188;2022-09-09T03:52:24;100067.00;;;16.03;100.00
67013;BME280;53926;47.406;19.188;2022-09-09T03:54:52;100063.75;;;15.91;100.00
67013;BME280;53926;47.406;19.188;2022-09-09T03:57:19;100066.12;;;15.93;100.00
67013;BME280;53926;47.406;19.188;2022-09-09T03:59:46;100068.09;;;16.07;100.00
67013;BME280;53926;47.406;19.188;2022-09-09T04:02:12;100065.66;;;16.01;100.00
67013;BME280;53926;47.406;19.188;2022-09-09T04:04:39;100069.88;;;16.02;100.00
67013;BME280;53926;47.406;19.188;2022-09-09T04:07:05;100076.91;;;15.96;100.00
67013;BME280;53926;47.406;19.188;2022-09-09T04:09:35;100070.44;;;16.04;100.00
67013;BME280;53926;47.406;19.188;2022-09-09T04:12:01;100064.63;;;16.02;100.00
67013;BME280;53926;47.406;19.188;2022-09-09T04:14:28;100071.16;;;15.99;100.00
67013;BME280;53926;47.406;19.188;2022-09-09T04:16:55;100071.94;;;16.00;100.00
67013;BME280;53926;47.406;19.188;2022-09-09T04:19:22;100078.28;;;15.99;100.00
67013;BME280;53926;47.406;19.188;2022-09-09T04:21:48;100074.34;;;16.01;100.00
67013;BME280;53926;47.406;19.188;2022-09-09T04:24:16;100070.87;;;15.96;100.00
67013;BME280;53926;47.406;19.188;2022-09-09T04:26:43;100089.09;;;16.07;100.00
67013;BME280;53926;47.406;19.188;2022-09-09T04:29:09;100090.19;;;16.12;100.00
67013;BME280;53926;47.406;19.188;2022-09-09T04:31:36;100091.41;;;15.77;100.00
67013;BME280;53926;47.406;19.188;2022-09-09T04:34:11;100089.09;;;15.58;100.00
67013;BME280;53926;47.406;19.188;2022-09-09T04:36:37;100093.12;;;15.88;100.00
67013;BME280;53926;47.406;19.188;2022-09-09T04:39:05;100089.84;;;16.03;100.00
67013;BME280;53926;47.406;19.188;2022-09-09T04:41:31;100087.84;;;16.15;100.00
67013;BME280;53926;47.406;19.188;2022-09-09T04:43:58;100088.69;;;16.21;100.00
67013;BME280;53926;47.406;19.188;2022-09-09T04:46:26;100085.53;;;16.19;100.00
67013;BME280;53926;47.406;19.188;2022-09-09T04:48:53;100080.81;;;16.21;100.00
67013;BME280;53926;47.406;19.188;2022-09-09T04:51:20;100075.34;;;16.27;100.00
67013;BME280;53926;47.406;19.188;2022-09-09T04:53:46;100079.69;;;16.12;100.00
67013;BME280;53926;47.406;19.188;2022-09-09T04:56:14;100071.34;;;16.20;100.00
67013;BME280;53926;47.406;19.188;2022-09-09T04:58:41;100084.47;;;16.20;100.00
67013;BME280;53926;47.406;19.188;2022-09-09T05:01:16;100078.97;;;16.21;100.00
67013;BME280;53926;47.406;19.188;2022-09-09T05:03:44;100083.97;;;16.23;100.00
67013;BME280;53926;47.406;19.188;2022-09-09T05:06:14;100080.59;;;16.27;100.00
67013;BME280;53926;47.406;19.188;2022-09-09T05:08:42;100084.91;;;16.39;100.00
67013;BME280;53926;47.406;19.188;2022-09-09T05:11:16;100085.03;;;16.54;100.00
67013;BME280;53926;47.406;19.188;2022-09-09T05:13:43;100087.66;;;16.54;100.00
67013;BME280;53926;47.406;19.188;2022-09-09T05:16:10;100093.84;;;16.43;100.00
67013;BME280;53926;47.406;19.188;2022-09-09T05:18:40;100100.56;;;16.23;100.00
67013;BME280;53926;47.406;19.188;2022-09-09T05:21:07;100105.13;;;16.38;100.00
67013;BME280;53926;47.406;19.188;2022-09-09T05:23:33;100106.59;;;16.56;100.00
67013;BME280;53926;47.406;19.188;2022-09-09T05:26:00;100108.47;;;16.66;100.00
67013;BME280;53926;47.406;19.188;2022-09-09T05:28:27;100105.44;;;16.85;100.00
67013;BME280;53926;47.406;19.188;2022-09-09T05:30:58;100108.75;;;17.02;100.00
67013;BME280;53926;47.406;19.188;2022-09-09T05:33:25;100109.47;;;16.92;100.00
67013;BME280;53926;47.406;19.188;2022-09-09T05:38:28;100111.34;;;17.50;100.00
67013;BME280;53926;47.406;19.188;2022-09-09T05:40:55;100115.59;;;17.66;100.00
67013;BME280;53926;47.406;19.188;2022-09-09T05:43:23;100116.47;;;19.06;100.00
67013;BME280;53926;47.406;19.188;2022-09-09T05:46:00;100118.69;;;19.43;100.00
67013;BME280;53926;47.406;19.188;2022-09-09T05:48:31;100128.81;;;20.89;95.29
67013;BME280;53926;47.406;19.188;2022-09-09T05:50:58;100130.72;;;21.13;86.63
67013;BME280;53926;47.406;19.188;2022-09-09T05:53:28;100124.72;;;22.60;84.43
67013;BME280;53926;47.406;19.188;2022-09-09T05:55:59;100115.66;;;23.58;78.83
67013;BME280;53926;47.406;19.188;2022-09-09T05:58:26;100125.56;;;24.71;74.90
67013;BME280;53926;47.406;19.188;2022-09-09T06:00:52;100114.63;;;23.82;74.85
67013;BME280;53926;47.406;19.188;2022-09-09T06:03:20;100114.66;;;25.74;71.79
67013;BME280;53926;47.406;19.188;2022-09-09T06:05:56;100112.38;;;26.54;67.66
67013;BME280;53926;47.406;19.188;2022-09-09T06:08:23;100119.31;;;24.53;69.17
67013;BME280;53926;47.406;19.188;2022-09-09T06:10:49;100130.22;;;25.98;68.51
67013;BME280;53926;47.406;19.188;2022-09-09T06:13:15;100126.00;;;24.41;71.37
67013;BME280;53926;47.406;19.188;2022-09-09T06:15:49;100118.19;;;23.77;74.38
67013;BME280;53926;47.406;19.188;2022-09-09T06:18:16;100110.56;;;26.29;65.16
67013;BME280;53926;47.406;19.188;2022-09-09T06:23:39;100109.53;;;24.08;68.49
67013;BME280;53926;47.406;19.188;2022-09-09T06:26:11;100113.34;;;24.70;67.74
67013;BME280;53926;47.406;19.188;2022-09-09T06:28:38;100113.00;;;21.95;75.91
67013;BME280;53926;47.406;19.188;2022-09-09T06:31:06;100106.56;;;23.23;74.03
67013;BME280;53926;47.406;19.188;2022-09-09T06:33:34;100118.16;;;22.99;76.54
67013;BME280;53926;47.406;19.188;2022-09-09T06:36:01;100113.44;;;22.96;77.58
67013;BME280;53926;47.406;19.188;2022-09-09T06:38:29;100118.50;;;21.99;76.72
67013;BME280;53926;47.406;19.188;2022-09-09T06:40:57;100120.66;;;22.62;79.90
67013;BME280;53926;47.406;19.188;2022-09-09T06:43:24;100114.75;;;22.52;78.74
67013;BME280;53926;47.406;19.188;2022-09-09T06:45:52;100114.75;;;23.63;75.01
67013;BME280;53926;47.406;19.188;2022-09-09T06:48:19;100108.31;;;23.41;71.39
67013;BME280;53926;47.406;19.188;2022-09-09T06:50:45;100108.16;;;22.16;77.22
67013;BME280;53926;47.406;19.188;2022-09-09T06:53:15;100102.16;;;22.10;76.49
67013;BME280;53926;47.406;19.188;2022-09-09T06:55:42;100102.22;;;22.85;75.65
67013;BME280;53926;47.406;19.188;2022-09-09T06:58:11;100105.78;;;21.14;81.57
67013;BME280;53926;47.406;19.188;2022-09-09T07:00:37;100112.84;;;21.86;79.55
67013;BME280;53926;47.406;19.188;2022-09-09T07:03:05;100131.03;;;21.93;76.12
67013;BME280;53926;47.406;19.188;2022-09-09T07:05:32;100133.41;;;21.32;78.51
67013;BME280;53926;47.406;19.188;2022-09-09T07:07:58;100143.84;;;21.67;88.55
67013;BME280;53926;47.406;19.188;2022-09-09T07:10:25;100145.19;;;22.40;80.31
67013;BME280;53926;47.406;19.188;2022-09-09T07:12:51;100144.97;;;22.18;76.39
67013;BME280;53926;47.406;19.188;2022-09-09T07:15:19;100151.75;;;23.87;72.66
67013;BME280;53926;47.406;19.188;2022-09-09T07:17:46;100148.75;;;24.48;67.20
67013;BME280;53926;47.406;19.188;2022-09-09T07:20:14;100150.53;;;23.15;71.11
67013;BME280;53926;47.406;19.188;2022-09-09T07:22:41;100153.28;;;24.02;66.71
67013;BME280;53926;47.406;19.188;2022-09-09T07:25:08;100154.88;;;23.38;72.46
67013;BME280;53926;47.406;19.188;2022-09-09T07:27:35;100152.87;;;23.44;70.87
67013;BME280;53926;47.406;19.188;2022-09-09T07:30:01;100152.87;;;22.23;73.13
67013;BME280;53926;47.406;19.188;2022-09-09T07:32:28;100150.72;;;21.43;77.91
67013;BME280;53926;47.406;19.188;2022-09-09T07:34:56;100146.09;;;23.38;72.15
67013;BME280;53926;47.406;19.188;2022-09-09T07:37:24;100148.41;;;25.03;65.94
67013;BME280;53926;47.406;19.188;2022-09-09T07:39:50;100160.16;;;25.60;64.72
67013;BME280;53926;47.406;19.188;2022-09-09T07:42:17;100166.28;;;24.71;64.12
67013;BME280;53926;47.406;19.188;2022-09-09T07:44:44;100156.53;;;25.47;61.27
67013;BME280;53926;47.406;19.188;2022-09-09T07:47:10;100168.09;;;27.12;58.01
67013;BME280;53926;47.406;19.188;2022-09-09T07:49:37;100158.75;;;27.78;56.17
67013;BME280;53926;47.406;19.188;2022-09-09T07:52:03;100169.53;;;25.48;61.24
67013;BME280;53926;47.406;19.188;2022-09-09T07:54:30;100156.63;;;27.41;56.99
67013;BME280;53926;47.406;19.188;2022-09-09T07:56:58;100159.00;;;28.06;52.71
67013;BME280;53926;47.406;19.188;2022-09-09T07:59:25;100159.97;;;28.23;53.62
67013;BME280;53926;47.406;19.188;2022-09-09T08:01:52;100164.06;;;25.62;58.13
67013;BME280;53926;47.406;19.188;2022-09-09T08:04:24;100155.22;;;26.75;58.84
67013;BME280;53926;47.406;19.188;2022-09-09T08:06:53;100154.31;;;27.82;53.00
67013;BME280;53926;47.406;19.188;2022-09-09T08:09:20;100152.78;;;26.91;56.56
67013;BME280;53926;47.406;19.188;2022-09-09T08:11:47;100151.88;;;25.79;56.76
67013;BME280;53926;47.406;19.188;2022-09-09T08:14:13;100152.91;;;25.43;59.67
67013;BME280;53926;47.406;19.188;2022-09-09T08:16:42;100158.28;;;26.39;56.70
67013;BME280;53926;47.406;19.188;2022-09-09T08:19:09;100155.47;;;25.74;59.33
67013;BME280;53926;47.406;19.188;2022-09-09T08:21:36;100158.75;;;25.13;60.26
67013;BME280;53926;47.406;19.188;2022-09-09T08:24:03;100158.28;;;25.69;62.52
67013;BME280;53926;47.406;19.188;2022-09-09T08:26:34;100164.06;;;24.65;60.06
67013;BME280;53926;47.406;19.188;2022-09-09T08:29:02;100146.66;;;24.98;64.34
67013;BME280;53926;47.406;19.188;2022-09-09T08:33:56;100156.28;;;23.86;61.11
67013;BME280;53926;47.406;19.188;2022-09-09T08:36:24;100153.38;;;23.60;67.73
67013;BME280;53926;47.406;19.188;2022-09-09T08:38:52;100149.59;;;24.12;63.44
67013;BME280;53926;47.406;19.188;2022-09-09T08:47:20;100159.34;;;23.94;61.69
67013;BME280;53926;47.406;19.188;2022-09-09T08:51:59;100158.91;;;24.23;57.33
67013;BME280;53926;47.406;19.188;2022-09-09T08:54:26;100158.06;;;24.14;58.85
67013;BME280;53926;47.406;19.188;2022-09-09T08:57:19;100160.47;;;24.24;59.64
67013;BME280;53926;47.406;19.188;2022-09-09T08:59:46;100158.66;;;24.33;62.17
67013;BME280;53926;47.406;19.188;2022-09-09T09:02:15;100157.12;;;24.86;61.78
67013;BME280;53926;47.406;19.188;2022-09-09T09:09:57;100155.31;;;24.73;60.26
67013;BME280;53926;47.406;19.188;2022-09-09T09:12:29;100153.75;;;24.72;58.53
67013;BME280;53926;47.406;19.188;2022-09-09T09:14:56;100155.94;;;25.59;59.12
67013;BME280;53926;47.406;19.188;2022-09-09T09:17:25;100150.72;;;25.45;59.53
67013;BME280;53926;47.406;19.188;2022-09-09T09:19:53;100147.00;;;25.81;55.74
67013;BME280;53926;47.406;19.188;2022-09-09T09:22:21;100152.28;;;25.37;57.90
67013;BME280;53926;47.406;19.188;2022-09-09T09:24:55;100136.31;;;25.06;56.69
67013;BME280;53926;47.406;19.188;2022-09-09T09:29:52;100144.75;;;26.44;55.07
67013;BME280;53926;47.406;19.188;2022-09-09T09:32:44;100139.78;;;25.64;58.44
67013;BME280;53926;47.406;19.188;2022-09-09T09:35:14;100136.44;;;25.41;57.91
67013;BME280;53926;47.406;19.188;2022-09-09T09:37:40;100134.91;;;25.92;56.90
67013;BME280;53926;47.406;19.188;2022-09-09T09:40:31;100137.91;;;25.73;52.29
67013;BME280;53926;47.406;19.188;2022-09-09T09:42:58;100131.63;;;25.03;55.17
67013;BME280;53926;47.406;19.188;2022-09-09T09:48:02;100133.81;;;25.76;54.63
67013;BME280;53926;47.406;19.188;2022-09-09T09:50:33;100136.59;;;26.40;48.78
67013;BME280;53926;47.406;19.188;2022-09-09T09:53:02;100135.72;;;25.93;49.11
67013;BME280;53926;47.406;19.188;2022-09-09T09:55:30;100131.94;;;25.76;53.04
67013;BME280;53926;47.406;19.188;2022-09-09T09:58:02;100131.47;;;26.18;49.23
67013;BME280;53926;47.406;19.188;2022-09-09T10:00:30;100131.00;;;25.98;51.22
67013;BME280;53926;47.406;19.188;2022-09-09T10:02:59;100134.44;;;25.81;52.29
67013;BME280;53926;47.406;19.188;2022-09-09T10:05:27;100136.94;;;26.21;47.43
67013;BME280;53926;47.406;19.188;2022-09-09T10:13:35;100123.94;;;25.76;51.99
67013;BME280;53926;47.406;19.188;2022-09-09T10:31:40;100120.84;;;26.56;45.83
67013;BME280;53926;47.406;19.188;2022-09-09T10:36:38;100120.00;;;27.42;44.82
67013;BME280;53926;47.406;19.188;2022-09-09T10:41:54;100114.63;;;27.84;45.96
67013;BME280;53926;47.406;19.188;2022-09-09T10:49:57;100112.78;;;27.97;41.40
67013;BME280;53926;47.406;19.188;2022-09-09T10:59:51;100100.38;;;28.13;40.53
67013;BME280;53926;47.406;19.188;2022-09-09T11:02:22;100105.41;;;27.94;39.35
67013;BME280;53926;47.406;19.188;2022-09-09T11:07:25;100104.84;;;27.46;43.31
67013;BME280;53926;47.406;19.188;2022-09-09T11:09:55;100110.12;;;28.43;40.99
67013;BME280;53926;47.406;19.188;2022-09-09T11:12:24;100107.78;;;29.40;38.98
67013;BME280;53926;47.406;19.188;2022-09-09T11:15:04;100111.37;;;28.58;38.62
67013;BME280;53926;47.406;19.188;2022-09-09T11:17:40;100106.34;;;27.98;41.50
67013;BME280;53926;47.406;19.188;2022-09-09T11:20:12;100100.22;;;28.68;39.92
67013;BME280;53926;47.406;19.188;2022-09-09T11:22:42;100094.41;;;27.95;39.39
67013;BME280;53926;47.406;19.188;2022-09-09T11:25:15;100101.37;;;28.21;38.50
67013;BME280;53926;47.406;19.188;2022-09-09T11:37:39;100094.69;;;28.73;37.91
67013;BME280;53926;47.406;19.188;2022-09-09T11:42:46;100107.00;;;28.41;38.04
67013;BME280;53926;47.406;19.188;2022-09-09T11:45:23;100094.53;;;29.06;37.25
67013;BME280;53926;47.406;19.188;2022-09-09T11:47:55;100088.97;;;28.87;38.93
67013;BME280;53926;47.406;19.188;2022-09-09T11:52:49;100080.66;;;29.29;33.98
67013;BME280;53926;47.406;19.188;2022-09-09T12:00:38;100089.41;;;27.52;37.47
67013;BME280;53926;47.406;19.188;2022-09-09T12:03:09;100084.59;;;27.45;35.16
67013;BME280;53926;47.406;19.188;2022-09-09T12:05:52;100074.53;;;28.30;35.56
67013;BME280;53926;47.406;19.188;2022-09-09T12:08:21;100074.78;;;28.74;37.54
67013;BME280;53926;47.406;19.188;2022-09-09T12:10:57;100068.59;;;29.11;39.70
67013;BME280;53926;47.406;19.188;2022-09-09T12:13:24;100070.31;;;29.56;34.95
67013;BME280;53926;47.406;19.188;2022-09-09T12:16:00;100079.06;;;29.40;33.51
67013;BME280;53926;47.406;19.188;2022-09-09T12:18:34;100083.84;;;29.47;34.08
67013;BME280;53926;47.406;19.188;2022-09-09T12:21:07;100080.03;;;28.95;36.00
67013;BME280;53926;47.406;19.188;2022-09-09T12:23:49;100089.88;;;29.85;36.60
67013;BME280;53926;47.406;19.188;2022-09-09T12:31:24;100072.34;;;30.35;36.00
67013;BME280;53926;47.406;19.188;2022-09-09T12:33:52;100071.44;;;27.73;37.71
67013;BME280;53926;47.406;19.188;2022-09-09T12:36:20;100059.19;;;28.06;38.73
67013;BME280;53926;47.406;19.188;2022-09-09T12:38:48;100047.50;;;28.10;40.87
67013;BME280;53926;47.406;19.188;2022-09-09T12:41:21;100047.31;;;28.77;37.36
67013;BME280;53926;47.406;19.188;2022-09-09T12:43:48;100047.84;;;29.76;36.74
67013;BME280;53926;47.406;19.188;2022-09-09T12:49:02;100045.72;;;29.82;37.82
67013;BME280;53926;47.406;19.188;2022-09-09T12:51:30;100038.94;;;29.44;35.43
67013;BME280;53926;47.406;19.188;2022-09-09T12:53:58;100035.62;;;30.39;35.65
67013;BME280;53926;47.406;19.188;2022-09-09T12:56:29;100032.84;;;30.52;31.89
67013;BME280;53926;47.406;19.188;2022-09-09T12:58:56;100035.81;;;29.70;34.32
67013;BME280;53926;47.406;19.188;2022-09-09T13:01:28;100029.88;;;29.49;33.36
67013;BME280;53926;47.406;19.188;2022-09-09T13:03:55;100019.69;;;30.82;33.35
67013;BME280;53926;47.406;19.188;2022-09-09T13:06:23;100027.56;;;29.63;35.45
67013;BME280;53926;47.406;19.188;2022-09-09T13:08:55;100025.72;;;29.51;34.62
67013;BME280;53926;47.406;19.188;2022-09-09T13:11:24;100017.19;;;27.73;39.31
67013;BME280;53926;47.406;19.188;2022-09-09T13:13:53;100010.09;;;27.56;38.14
67013;BME280;53926;47.406;19.188;2022-09-09T13:16:22;100007.56;;;27.72;41.64
67013;BME280;53926;47.406;19.188;2022-09-09T13:18:49;100000.06;;;27.98;40.20
67013;BME280;53926;47.406;19.188;2022-09-09T13:21:16;99991.41;;;28.39;38.83
67013;BME280;53926;47.406;19.188;2022-09-09T13:23:47;99995.50;;;27.11;39.90
67013;BME280;53926;47.406;19.188;2022-09-09T13:26:24;99989.03;;;28.00;40.22
67013;BME280;53926;47.406;19.188;2022-09-09T13:28:54;99982.69;;;28.54;37.95
67013;BME280;53926;47.406;19.188;2022-09-09T13:31:29;99987.94;;;28.75;38.01
67013;BME280;53926;47.406;19.188;2022-09-09T13:33:56;99986.75;;;27.77;39.31
67013;BME280;53926;47.406;19.188;2022-09-09T13:36:30;99992.25;;;27.93;40.88
67013;BME280;53926;47.406;19.188;2022-09-09T13:39:02;99986.59;;;28.81;38.75
67013;BME280;53926;47.406;19.188;2022-09-09T13:41:33;99993.37;;;28.91;43.22
67013;BME280;53926;47.406;19.188;2022-09-09T13:44:00;99980.28;;;27.78;37.38
67013;BME280;53926;47.406;19.188;2022-09-09T13:46:37;99981.59;;;27.72;41.45
67013;BME280;53926;47.406;19.188;2022-09-09T13:51:36;99988.53;;;27.86;44.63
67013;BME280;53926;47.406;19.188;2022-09-09T13:54:04;99990.00;;;28.94;43.46
67013;BME280;53926;47.406;19.188;2022-09-09T13:56:33;99983.78;;;28.90;41.09
67013;BME280;53926;47.406;19.188;2022-09-09T13:58:59;99980.28;;;29.58;37.74
67013;BME280;53926;47.406;19.188;2022-09-09T14:01:27;99967.69;;;29.59;39.89
67013;BME280;53926;47.406;19.188;2022-09-09T14:03:55;99968.84;;;30.06;36.65
67013;BME280;53926;47.406;19.188;2022-09-09T14:06:22;99966.69;;;28.95;40.39
67013;BME280;53926;47.406;19.188;2022-09-09T14:08:49;99964.81;;;28.83;39.48
67013;BME280;53926;47.406;19.188;2022-09-09T14:11:16;99960.41;;;28.25;42.48
67013;BME280;53926;47.406;19.188;2022-09-09T14:13:43;99960.38;;;28.50;39.93
67013;BME280;53926;47.406;19.188;2022-09-09T14:16:10;99959.75;;;27.37;43.40
67013;BME280;53926;47.406;19.188;2022-09-09T14:18:36;99951.38;;;27.59;42.84
67013;BME280;53926;47.406;19.188;2022-09-09T14:21:04;99947.19;;;26.95;44.46
67013;BME280;53926;47.406;19.188;2022-09-09T14:23:30;99951.88;;;26.17;46.80
67013;BME280;53926;47.406;19.188;2022-09-09T14:25:58;99949.38;;;26.12;46.02
67013;BME280;53926;47.406;19.188;2022-09-09T14:28:24;99947.69;;;26.97;46.04
67013;BME280;53926;47.406;19.188;2022-09-09T14:31:11;99953.09;;;27.43;45.54
67013;BME280;53926;47.406;19.188;2022-09-09T14:33:40;99957.69;;;27.42;42.88
67013;BME280;53926;47.406;19.188;2022-09-09T14:36:06;99950.31;;;27.18;43.57
67013;BME280;53926;47.406;19.188;2022-09-09T14:38:35;99948.56;;;27.01;45.50
67013;BME280;53926;47.406;19.188;2022-09-09T14:41:06;99938.41;;;27.49;46.15
67013;BME280;53926;47.406;19.188;2022-09-09T14:43:33;99944.19;;;26.97;45.32
67013;BME280;53926;47.406;19.188;2022-09-09T14:46:06;99944.69;;;26.99;44.12
67013;BME280;53926;47.406;19.188;2022-09-09T14:48:33;99943.88;;;27.19;43.87
67013;BME280;53926;47.406;19.188;2022-09-09T14:51:10;99938.03;;;26.24;45.75
67013;BME280;53926;47.406;19.188;2022-09-09T14:53:36;99941.59;;;26.37;46.81
67013;BME280;53926;47.406;19.188;2022-09-09T14:56:06;99948.41;;;26.55;45.86
67013;BME280;53926;47.406;19.188;2022-09-09T14:58:34;99950.75;;;26.27;46.04
67013;BME280;53926;47.406;19.188;2022-09-09T15:01:02;99947.09;;;26.32;46.45
67013;BME280;53926;47.406;19.188;2022-09-09T15:03:28;99945.06;;;26.29;44.73
67013;BME280;53926;47.406;19.188;2022-09-09T15:05:55;99951.88;;;26.47;47.50
67013;BME280;53926;47.406;19.188;2022-09-09T15:08:21;99948.06;;;26.27;46.04